Terminal Aerodrome Forecast
Issued by NWS

Home | Current Version | Previous Version | Text Only | Print | Product List | Glossary On
Versions: 1 2 3 4 5 6 7 8 9 10 11 12 13 14 15 16 17 18 19 20 21 22 23 24 25
000
FTUS41 KBUF 220500
TAFIAG
TAF
KIAG 220534Z 2206/2306 00000KT P6SM SCT250
     FM220800 00000KT 1/2SM FG SCT007
     FM221100 00000KT 1SM BR BKN007
     FM221300 00000KT P6SM BKN050
     FM221600 VRB03KT P6SM BKN110
     FM230000 05006KT P6SM SCT250=

USA.gov is the U.S. government's official web portal to all federal, state and local government web resources and services.